createdAt,value
2022-10-21T00:01:55.951Z,27.48
2022-10-21T00:04:25.423Z,27.08
2022-10-21T00:06:53.484Z,25.63
2022-10-21T00:09:21.742Z,26.20
2022-10-21T00:11:50.125Z,27.08
2022-10-21T00:14:18.244Z,26.20
2022-10-21T00:16:46.500Z,27.50
2022-10-21T00:19:14.906Z,26.80
2022-10-21T00:21:44.582Z,25.73
2022-10-21T00:24:13.074Z,26.38
2022-10-21T00:26:41.208Z,26.95
2022-10-21T00:29:09.459Z,27.35
2022-10-21T00:31:37.565Z,26.98
2022-10-21T00:34:06.042Z,26.55
2022-10-21T00:36:34.119Z,26.40
2022-10-21T00:39:03.872Z,26.15
2022-10-21T00:41:31.959Z,25.80
2022-10-21T00:44:03.494Z,25.98
2022-10-21T00:46:39.339Z,25.70
2022-10-21T00:49:15.613Z,26.35
2022-10-21T00:51:46.997Z,24.70
2022-10-21T00:54:17.510Z,24.88
2022-10-21T00:59:25.059Z,25.45
2022-10-21T01:01:53.461Z,24.23
2022-10-21T01:04:22.263Z,24.25
2022-10-21T01:06:51.122Z,23.80
2022-10-21T01:09:22.485Z,23.95
2022-10-21T01:11:51.278Z,22.90
2022-10-21T01:14:53.379Z,22.15
2022-10-21T01:17:44.843Z,22.73
2022-10-21T01:20:56.237Z,21.92
2022-10-21T01:24:28.711Z,21.55
2022-10-21T01:27:14.959Z,21.45
2022-10-21T01:30:13.750Z,20.02
2022-10-21T01:33:20.748Z,19.65
2022-10-21T01:35:57.098Z,18.98
2022-10-21T01:38:34.562Z,19.35
2022-10-21T01:41:10.313Z,18.65
2022-10-21T01:43:47.037Z,19.20
2022-10-21T01:46:21.933Z,17.85
2022-10-21T01:48:57.800Z,17.48
2022-10-21T01:51:28.281Z,16.85
2022-10-21T01:54:14.193Z,16.67
2022-10-21T01:56:44.183Z,15.98
2022-10-21T01:59:14.787Z,16.42
2022-10-21T02:01:44.531Z,15.15
2022-10-21T02:04:16.875Z,15.13
2022-10-21T02:06:45.581Z,14.27
2022-10-21T02:09:14.183Z,15.13
2022-10-21T02:11:44.744Z,14.15
2022-10-21T02:14:19.431Z,14.15
2022-10-21T02:16:51.454Z,14.57
2022-10-21T02:19:22.337Z,13.77
2022-10-21T02:21:53.954Z,13.15
2022-10-21T02:24:34.442Z,14.05
2022-10-21T02:27:02.882Z,12.55
2022-10-21T02:29:37.818Z,13.18
2022-10-21T02:32:24.429Z,13.27
2022-10-21T02:35:13.048Z,12.68
2022-10-21T02:37:48.013Z,12.98
2022-10-21T02:40:22.389Z,13.45
2022-10-21T02:42:57.486Z,12.32
2022-10-21T02:45:25.996Z,12.65
2022-10-21T02:47:54.080Z,13.00
2022-10-21T02:50:24.679Z,12.15
2022-10-21T02:52:53.051Z,12.80
2022-10-21T02:55:21.218Z,11.10
2022-10-21T02:57:49.410Z,12.77
2022-10-21T03:00:18.085Z,13.18
2022-10-21T03:02:46.266Z,13.23
2022-10-21T03:05:14.510Z,12.63
2022-10-21T03:07:44.210Z,12.75
2022-10-21T03:10:12.421Z,12.40
2022-10-21T03:12:40.778Z,12.85
2022-10-21T03:15:10.168Z,12.90
2022-10-21T03:17:38.593Z,12.00
2022-10-21T03:20:07.933Z,12.48
2022-10-21T03:22:36.426Z,12.82
2022-10-21T03:25:07.972Z,13.05
2022-10-21T03:27:36.182Z,12.20
2022-10-21T03:30:05.755Z,12.65
2022-10-21T03:32:35.911Z,12.90
2022-10-21T03:35:04.729Z,11.98
2022-10-21T03:37:32.886Z,11.98
2022-10-21T03:40:01.135Z,11.95
2022-10-21T03:42:30.695Z,11.32
2022-10-21T03:44:58.988Z,11.07
2022-10-21T03:47:27.422Z,11.23
2022-10-21T03:49:55.660Z,11.98
2022-10-21T03:52:23.849Z,11.73
2022-10-21T03:54:52.096Z,10.82
2022-10-21T03:57:20.514Z,11.77
2022-10-21T03:59:50.119Z,11.70
2022-10-21T04:02:18.258Z,11.88
2022-10-21T04:04:46.520Z,11.25
2022-10-21T04:07:14.665Z,12.00
2022-10-21T04:09:42.766Z,11.75
2022-10-21T04:12:11.660Z,12.00
2022-10-21T04:14:40.942Z,12.73
2022-10-21T04:17:10.473Z,12.65
2022-10-21T04:19:38.767Z,11.45
2022-10-21T04:22:06.938Z,12.52
2022-10-21T04:24:35.233Z,12.30
2022-10-21T04:27:03.422Z,13.02
2022-10-21T04:29:31.954Z,11.82
2022-10-21T04:32:00.217Z,12.68
2022-10-21T04:34:29.841Z,12.00
2022-10-21T04:37:01.098Z,12.80
2022-10-21T04:39:32.732Z,12.35
2022-10-21T04:42:01.037Z,11.95
2022-10-21T04:44:29.408Z,11.77
2022-10-21T04:46:57.612Z,11.68
2022-10-21T04:49:25.835Z,12.00
2022-10-21T04:51:55.632Z,11.75
2022-10-21T04:54:23.981Z,10.98
2022-10-21T04:56:52.182Z,12.50
2022-10-21T04:59:22.455Z,12.15
2022-10-21T05:01:50.941Z,12.32
2022-10-21T05:04:19.588Z,11.68
2022-10-21T05:06:48.022Z,11.60
2022-10-21T05:09:18.115Z,11.85
2022-10-21T05:11:46.803Z,12.70
2022-10-21T05:14:17.623Z,11.65
2022-10-21T05:16:49.891Z,11.55
2022-10-21T05:19:18.211Z,10.98
2022-10-21T05:21:50.176Z,11.52
2022-10-21T05:24:28.228Z,11.40
2022-10-21T05:27:01.140Z,9.98
2022-10-21T05:29:29.672Z,10.55
2022-10-21T05:31:57.778Z,10.18
2022-10-21T05:34:26.657Z,10.38
2022-10-21T05:36:55.489Z,10.50
2022-10-21T05:39:25.598Z,10.27
2022-10-21T05:41:59.907Z,10.90
2022-10-21T05:44:28.299Z,10.35
2022-10-21T05:46:57.550Z,10.20
2022-10-21T05:49:27.228Z,10.15
2022-10-21T06:00:14.232Z,10.43
2022-10-21T06:03:01.866Z,11.27
2022-10-21T06:05:53.331Z,11.23
2022-10-21T06:08:33.623Z,11.88
2022-10-21T06:11:11.741Z,11.98
2022-10-21T06:13:54.409Z,11.45
2022-10-21T06:16:26.612Z,13.23
2022-10-21T06:18:58.449Z,12.73
2022-10-21T06:21:30.204Z,13.82
2022-10-21T06:24:17.207Z,13.50
2022-10-21T06:26:54.609Z,13.70
2022-10-21T06:29:46.230Z,13.90
2022-10-21T06:32:20.458Z,14.50
2022-10-21T06:34:53.267Z,14.40
2022-10-21T06:37:27.632Z,13.98
2022-10-21T06:39:57.245Z,13.68
2022-10-21T06:42:31.670Z,14.13
2022-10-21T06:45:15.275Z,13.95
2022-10-21T06:47:48.908Z,13.07
2022-10-21T06:50:18.355Z,12.95
2022-10-21T06:52:48.802Z,13.60
2022-10-21T06:55:22.836Z,12.75
2022-10-21T06:57:52.385Z,13.35
2022-10-21T07:00:38.647Z,12.43
2022-10-21T07:03:06.787Z,14.20
2022-10-21T07:05:40.977Z,13.30
2022-10-21T07:08:11.922Z,12.20
2022-10-21T07:10:45.227Z,12.57
2022-10-21T07:13:14.188Z,12.45
2022-10-21T07:15:43.826Z,12.45
2022-10-21T07:18:12.392Z,12.20
2022-10-21T07:20:41.790Z,12.23
2022-10-21T07:23:10.323Z,13.13
2022-10-21T07:25:41.701Z,12.20
2022-10-21T07:28:10.199Z,13.07
2022-10-21T07:30:45.858Z,11.85
2022-10-21T07:33:17.962Z,12.05
2022-10-21T07:35:46.692Z,11.55
2022-10-21T07:38:20.947Z,11.73
2022-10-21T07:40:51.531Z,11.60
2022-10-21T07:43:21.308Z,11.80
2022-10-21T07:45:54.466Z,11.48
2022-10-21T07:48:25.113Z,10.90
2022-10-21T07:50:55.009Z,10.70
2022-10-21T07:53:59.888Z,12.05
2022-10-21T07:57:14.478Z,11.63
2022-10-21T08:00:56.410Z,10.35
2022-10-21T08:04:19.283Z,11.23
2022-10-21T08:06:49.152Z,10.63
2022-10-21T08:09:18.420Z,10.20
2022-10-21T08:11:46.898Z,10.52
2022-10-21T08:14:18.105Z,10.85
2022-10-21T08:16:46.430Z,11.00
2022-10-21T08:19:29.556Z,11.30
2022-10-21T08:22:26.509Z,11.07
2022-10-21T08:24:57.799Z,10.85
2022-10-21T08:27:34.425Z,10.77
2022-10-21T08:30:03.400Z,10.65
2022-10-21T08:32:33.532Z,11.07
2022-10-21T08:35:03.448Z,10.90
2022-10-21T08:37:32.859Z,11.23
2022-10-21T08:40:02.695Z,10.88
2022-10-21T08:42:33.835Z,10.07
2022-10-21T08:45:09.860Z,10.55
2022-10-21T08:48:06.444Z,10.10
2022-10-21T08:50:51.465Z,9.80
2022-10-21T08:53:25.998Z,10.40
2022-10-21T08:56:04.932Z,10.35
2022-10-21T08:58:46.747Z,10.05
2022-10-21T09:01:44.922Z,9.45
2022-10-21T09:05:15.693Z,9.43
2022-10-21T09:08:26.303Z,9.60
2022-10-21T09:11:13.108Z,9.65
2022-10-21T09:20:39.764Z,9.18
2022-10-21T09:24:30.610Z,8.77
2022-10-21T09:27:31.801Z,8.20
2022-10-21T09:30:04.654Z,8.20
2022-10-21T09:32:49.873Z,8.55
2022-10-21T09:35:30.069Z,8.60
2022-10-21T09:38:16.479Z,8.23
2022-10-21T09:40:59.890Z,8.48
2022-10-21T09:43:41.138Z,7.75
2022-10-21T09:46:15.444Z,8.05
2022-10-21T09:51:49.856Z,7.40
2022-10-21T09:54:22.319Z,6.97
2022-10-21T10:10:58.946Z,5.60
2022-10-21T10:13:52.666Z,6.03
2022-10-21T10:21:14.192Z,5.53
2022-10-21T10:24:19.736Z,6.43
2022-10-21T10:46:10.000Z,5.60
2022-10-21T11:20:47.252Z,4.97
2022-10-21T11:24:02.852Z,4.30
2022-10-21T11:29:46.014Z,4.32
2022-10-21T11:32:29.653Z,3.60
2022-10-21T11:35:19.130Z,2.80
2022-10-21T13:05:54.775Z,1.77
2022-10-21T13:18:10.098Z,1.70
2022-10-21T13:21:01.990Z,2.08
2022-10-21T13:23:42.323Z,1.77
2022-10-21T13:27:00.562Z,1.75
2022-10-21T13:30:05.546Z,1.60
2022-10-21T13:32:44.961Z,1.95
2022-10-21T13:36:00.306Z,1.67
2022-10-21T13:38:53.127Z,1.67
2022-10-21T13:41:36.131Z,1.90
2022-10-21T13:45:07.240Z,1.55
2022-10-21T13:47:47.188Z,1.98
2022-10-21T13:56:45.263Z,1.88
2022-10-21T14:03:13.061Z,1.80
2022-10-21T14:05:52.017Z,1.70
2022-10-21T14:08:44.419Z,1.92
2022-10-21T14:14:20.609Z,1.70
2022-10-21T14:17:03.512Z,1.40
2022-10-21T14:19:35.378Z,1.70
2022-10-21T14:22:04.231Z,1.63
2022-10-21T14:25:16.429Z,2.00
2022-10-21T14:30:41.369Z,1.40
2022-10-21T14:33:18.826Z,1.63
2022-10-21T14:37:11.900Z,1.60
2022-10-21T15:07:49.904Z,1.58
2022-10-21T16:37:12.645Z,1.88
2022-10-21T16:40:54.841Z,2.10
2022-10-21T17:15:24.080Z,2.22
2022-10-21T17:18:04.786Z,2.40
2022-10-21T17:20:40.175Z,2.65
2022-10-21T17:23:33.094Z,2.97
2022-10-21T17:26:10.532Z,3.03
2022-10-21T17:28:46.218Z,3.42
2022-10-21T17:31:26.533Z,3.70
2022-10-21T17:34:00.159Z,3.55
2022-10-21T17:36:46.977Z,3.10
2022-10-21T17:39:16.021Z,2.80
2022-10-21T17:41:54.709Z,2.50
2022-10-21T17:44:23.205Z,2.75
2022-10-21T17:47:03.099Z,2.30
2022-10-21T17:49:45.079Z,2.78
2022-10-21T17:52:15.968Z,3.33
2022-10-21T17:54:51.540Z,3.30
2022-10-21T17:57:44.632Z,2.78
2022-10-21T18:00:24.770Z,2.40
2022-10-21T18:04:06.522Z,2.83
2022-10-21T18:07:35.238Z,2.20
2022-10-21T18:10:10.707Z,2.42
2022-10-21T18:12:44.613Z,2.20
2022-10-21T18:15:17.059Z,2.20
2022-10-21T18:17:52.535Z,2.78
2022-10-21T18:20:21.186Z,2.30
2022-10-21T18:22:58.880Z,1.80
2022-10-21T18:25:32.745Z,2.13
2022-10-21T18:28:04.977Z,1.75
2022-10-21T18:30:34.384Z,2.45
2022-10-21T18:33:03.679Z,2.58
2022-10-21T18:35:34.647Z,3.40
2022-10-21T18:38:04.364Z,5.60
2022-10-21T18:40:34.337Z,5.07
2022-10-21T18:43:02.549Z,3.70
2022-10-21T18:45:31.218Z,3.63
2022-10-21T18:48:12.997Z,3.95
2022-10-21T18:50:44.435Z,3.58
2022-10-21T18:53:14.948Z,4.40
2022-10-21T18:55:46.244Z,3.58
2022-10-21T18:58:14.650Z,3.97
2022-10-21T19:00:45.852Z,4.10
2022-10-21T19:03:20.382Z,3.50
2022-10-21T19:05:49.107Z,4.57
2022-10-21T19:08:47.900Z,3.50
2022-10-21T19:11:35.226Z,3.85
2022-10-21T19:14:49.653Z,3.85
2022-10-21T19:18:20.565Z,3.50
2022-10-21T19:34:49.364Z,6.20
2022-10-21T19:41:28.099Z,3.92
2022-10-21T19:47:47.783Z,5.75
2022-10-21T19:54:23.837Z,5.43
2022-10-21T20:01:14.667Z,6.72
2022-10-21T20:04:47.869Z,6.03
2022-10-21T20:24:23.598Z,7.05
2022-10-21T20:27:03.491Z,5.25
2022-10-21T20:29:48.521Z,5.10
2022-10-21T20:32:41.405Z,4.68
2022-10-21T20:35:28.852Z,8.63
2022-10-21T20:38:14.988Z,7.57
2022-10-21T20:41:02.710Z,8.65
2022-10-21T20:43:35.727Z,6.78
2022-10-21T20:46:06.897Z,10.95
2022-10-21T20:48:36.283Z,12.40
2022-10-21T20:51:07.649Z,9.18
2022-10-21T20:53:54.712Z,8.18
2022-10-21T20:59:39.385Z,9.20
2022-10-21T21:02:11.105Z,8.73
2022-10-21T21:04:47.018Z,13.60
2022-10-21T21:07:32.812Z,9.63
2022-10-21T21:10:10.391Z,4.03
2022-10-21T21:12:42.345Z,3.97
2022-10-21T21:15:18.142Z,4.15
2022-10-21T21:17:50.214Z,4.47
2022-10-21T21:20:30.876Z,4.13
2022-10-21T21:22:59.689Z,4.10
2022-10-21T21:25:39.630Z,4.10
2022-10-21T21:28:21.916Z,4.20
2022-10-21T21:31:02.805Z,4.38
2022-10-21T21:33:46.989Z,4.20
2022-10-21T21:36:25.397Z,4.10
2022-10-21T21:38:54.493Z,4.10
2022-10-21T21:41:30.609Z,4.03
2022-10-21T21:43:59.129Z,4.30
2022-10-21T21:46:30.242Z,4.65
2022-10-21T21:49:06.118Z,3.75
2022-10-21T21:51:36.719Z,4.85
2022-10-21T21:54:08.730Z,3.70
2022-10-21T21:56:39.216Z,5.03
2022-10-21T21:59:08.053Z,4.10
2022-10-21T22:01:41.116Z,4.00
2022-10-21T22:04:09.286Z,4.13
2022-10-21T22:06:41.089Z,4.18
2022-10-21T22:09:10.008Z,4.03
2022-10-21T22:11:46.844Z,4.25
2022-10-21T22:14:28.276Z,4.22
2022-10-21T22:16:58.359Z,4.28
2022-10-21T22:19:26.730Z,4.00
2022-10-21T22:21:55.052Z,4.68
2022-10-21T22:24:23.258Z,4.85
2022-10-21T22:26:53.373Z,4.60
2022-10-21T22:29:21.616Z,4.63
2022-10-21T22:31:50.438Z,4.10
2022-10-21T22:34:20.221Z,4.15
2022-10-21T22:36:49.097Z,4.00
2022-10-21T22:39:19.900Z,4.10
2022-10-21T22:41:48.565Z,4.15
2022-10-21T22:44:16.955Z,3.78
2022-10-21T22:46:45.219Z,3.95
2022-10-21T22:49:15.992Z,4.00
2022-10-21T22:51:45.740Z,4.32
2022-10-21T22:54:29.716Z,3.95
2022-10-21T22:57:03.258Z,4.25
2022-10-21T22:59:31.507Z,4.50
2022-10-21T23:02:01.119Z,4.82
2022-10-21T23:04:29.630Z,4.88
2022-10-21T23:06:59.192Z,4.38
2022-10-21T23:09:27.574Z,4.50
2022-10-21T23:11:55.980Z,5.10
2022-10-21T23:14:24.295Z,4.70
2022-10-21T23:16:54.674Z,3.97
2022-10-21T23:19:22.852Z,4.70
2022-10-21T23:21:51.010Z,4.57
2022-10-21T23:24:20.582Z,4.80
2022-10-21T23:26:48.971Z,4.68
2022-10-21T23:29:17.229Z,4.50
2022-10-21T23:31:45.536Z,5.00
2022-10-21T23:34:13.802Z,4.50
2022-10-21T23:36:42.106Z,4.97
2022-10-21T23:39:12.375Z,4.57
2022-10-21T23:41:42.236Z,4.72
2022-10-21T23:44:10.547Z,4.72
2022-10-21T23:46:41.984Z,4.45
2022-10-21T23:49:10.375Z,4.97
2022-10-21T23:51:38.741Z,4.90
2022-10-21T23:54:07.077Z,4.90
2022-10-21T23:56:35.487Z,5.25
2022-10-21T23:59:06.868Z,4.57
